sensor_id;sensor_type;location;lat;lon;timestamp;pressure;altitude;pressure_sealevel;temperature;humidity
77192;BME280;66172;48.526;8.078;2023-06-22T00:00:56;99522.75;;;22.41;71.42
77192;BME280;66172;48.526;8.078;2023-06-22T00:03:23;99526.19;;;22.49;71.82
77192;BME280;66172;48.526;8.078;2023-06-22T00:05:50;99524.56;;;22.55;71.37
77192;BME280;66172;48.526;8.078;2023-06-22T00:08:17;99523.75;;;22.54;70.92
77192;BME280;66172;48.526;8.078;2023-06-22T00:10:44;99526.47;;;22.58;71.26
77192;BME280;66172;48.526;8.078;2023-06-22T00:13:10;99531.19;;;22.61;71.07
77192;BME280;66172;48.526;8.078;2023-06-22T00:15:38;99528.38;;;22.64;72.00
77192;BME280;66172;48.526;8.078;2023-06-22T00:18:05;99526.78;;;22.67;71.72
77192;BME280;66172;48.526;8.078;2023-06-22T00:20:32;99514.75;;;22.77;71.30
77192;BME280;66172;48.526;8.078;2023-06-22T00:22:59;99507.25;;;22.74;71.26
77192;BME280;66172;48.526;8.078;2023-06-22T00:25:25;99506.13;;;22.71;71.42
77192;BME280;66172;48.526;8.078;2023-06-22T00:27:51;99485.88;;;22.74;71.16
77192;BME280;66172;48.526;8.078;2023-06-22T00:30:18;99482.34;;;22.70;71.53
77192;BME280;66172;48.526;8.078;2023-06-22T00:32:45;99475.25;;;22.69;71.73
77192;BME280;66172;48.526;8.078;2023-06-22T00:35:13;99475.75;;;22.61;72.05
77192;BME280;66172;48.526;8.078;2023-06-22T00:37:40;99478.88;;;22.36;72.96
77192;BME280;66172;48.526;8.078;2023-06-22T00:40:11;99480.59;;;22.26;73.63
77192;BME280;66172;48.526;8.078;2023-06-22T00:42:38;99480.19;;;22.24;73.44
77192;BME280;66172;48.526;8.078;2023-06-22T00:45:07;99490.66;;;22.10;73.17
77192;BME280;66172;48.526;8.078;2023-06-22T00:47:37;99491.50;;;22.07;73.65
77192;BME280;66172;48.526;8.078;2023-06-22T00:50:06;99473.03;;;21.97;73.95
77192;BME280;66172;48.526;8.078;2023-06-22T00:52:33;99477.94;;;21.82;75.02
77192;BME280;66172;48.526;8.078;2023-06-22T00:55:02;99464.66;;;21.66;75.60
77192;BME280;66172;48.526;8.078;2023-06-22T00:57:28;99457.59;;;21.62;75.45
77192;BME280;66172;48.526;8.078;2023-06-22T00:59:54;99468.91;;;21.74;75.11
77192;BME280;66172;48.526;8.078;2023-06-22T01:02:20;99476.22;;;21.58;76.07
77192;BME280;66172;48.526;8.078;2023-06-22T01:04:46;99468.91;;;21.74;75.72
77192;BME280;66172;48.526;8.078;2023-06-22T01:07:31;99468.78;;;21.85;75.16
77192;BME280;66172;48.526;8.078;2023-06-22T01:13:07;99471.25;;;21.42;77.15
77192;BME280;66172;48.526;8.078;2023-06-22T01:15:40;99472.66;;;21.16;78.62
77192;BME280;66172;48.526;8.078;2023-06-22T01:18:09;99475.47;;;21.13;78.71
77192;BME280;66172;48.526;8.078;2023-06-22T01:20:37;99473.53;;;21.06;78.79
77192;BME280;66172;48.526;8.078;2023-06-22T01:23:26;99480.41;;;20.84;80.19
77192;BME280;66172;48.526;8.078;2023-06-22T01:26:18;99478.75;;;20.93;79.56
77192;BME280;66172;48.526;8.078;2023-06-22T01:28:50;99482.63;;;21.03;78.95
77192;BME280;66172;48.526;8.078;2023-06-22T01:31:20;99487.16;;;21.31;78.05
77192;BME280;66172;48.526;8.078;2023-06-22T01:33:52;99478.72;;;21.45;76.69
77192;BME280;66172;48.526;8.078;2023-06-22T01:36:21;99471.41;;;21.24;77.96
77192;BME280;66172;48.526;8.078;2023-06-22T01:38:48;99477.94;;;21.00;78.89
77192;BME280;66172;48.526;8.078;2023-06-22T01:41:16;99481.00;;;21.09;78.28
77192;BME280;66172;48.526;8.078;2023-06-22T01:43:42;99473.50;;;21.10;77.92
77192;BME280;66172;48.526;8.078;2023-06-22T01:46:09;99477.88;;;21.11;78.24
77192;BME280;66172;48.526;8.078;2023-06-22T01:48:36;99465.41;;;20.85;79.22
77192;BME280;66172;48.526;8.078;2023-06-22T01:51:02;99455.97;;;20.79;79.36
77192;BME280;66172;48.526;8.078;2023-06-22T01:53:28;99460.84;;;20.61;80.48
77192;BME280;66172;48.526;8.078;2023-06-22T01:55:55;99477.06;;;20.52;81.04
77192;BME280;66172;48.526;8.078;2023-06-22T01:58:25;99473.56;;;20.48;81.24
77192;BME280;66172;48.526;8.078;2023-06-22T02:01:12;99468.03;;;20.48;81.30
77192;BME280;66172;48.526;8.078;2023-06-22T02:03:58;99477.16;;;20.34;82.37
77192;BME280;66172;48.526;8.078;2023-06-22T02:06:31;99463.56;;;20.68;80.25
77192;BME280;66172;48.526;8.078;2023-06-22T02:09:02;99441.19;;;20.44;81.75
77192;BME280;66172;48.526;8.078;2023-06-22T02:11:33;99442.41;;;20.43;81.53
77192;BME280;66172;48.526;8.078;2023-06-22T02:13:59;99448.13;;;20.70;80.52
77192;BME280;66172;48.526;8.078;2023-06-22T02:16:26;99429.63;;;20.64;80.64
77192;BME280;66172;48.526;8.078;2023-06-22T02:18:55;99423.56;;;20.79;79.76
77192;BME280;66172;48.526;8.078;2023-06-22T02:21:29;99421.53;;;20.87;79.10
77192;BME280;66172;48.526;8.078;2023-06-22T02:23:55;99437.31;;;20.90;78.75
77192;BME280;66172;48.526;8.078;2023-06-22T02:26:21;99442.56;;;20.77;79.52
77192;BME280;66172;48.526;8.078;2023-06-22T02:28:48;99443.44;;;20.64;80.23
77192;BME280;66172;48.526;8.078;2023-06-22T02:31:14;99422.22;;;20.50;81.39
77192;BME280;66172;48.526;8.078;2023-06-22T02:33:39;99415.97;;;20.42;81.45
77192;BME280;66172;48.526;8.078;2023-06-22T02:36:06;99408.13;;;20.34;81.99
77192;BME280;66172;48.526;8.078;2023-06-22T02:38:35;99399.84;;;20.27;82.13
77192;BME280;66172;48.526;8.078;2023-06-22T02:41:02;99406.88;;;20.42;81.33
77192;BME280;66172;48.526;8.078;2023-06-22T02:43:28;99400.47;;;20.56;80.98
77192;BME280;66172;48.526;8.078;2023-06-22T02:45:54;99405.97;;;20.59;80.55
77192;BME280;66172;48.526;8.078;2023-06-22T02:48:20;99399.69;;;20.52;80.49
77192;BME280;66172;48.526;8.078;2023-06-22T02:50:46;99396.22;;;20.44;80.65
77192;BME280;66172;48.526;8.078;2023-06-22T02:53:12;99397.69;;;20.59;80.47
77192;BME280;66172;48.526;8.078;2023-06-22T02:55:38;99391.63;;;20.75;79.51
77192;BME280;66172;48.526;8.078;2023-06-22T02:58:05;99382.28;;;20.62;79.75
77192;BME280;66172;48.526;8.078;2023-06-22T03:00:31;99387.25;;;20.81;79.20
77192;BME280;66172;48.526;8.078;2023-06-22T03:02:57;99393.97;;;20.76;78.92
77192;BME280;66172;48.526;8.078;2023-06-22T03:05:23;99389.75;;;20.65;79.56
77192;BME280;66172;48.526;8.078;2023-06-22T03:07:50;99397.31;;;20.57;79.87
77192;BME280;66172;48.526;8.078;2023-06-22T03:10:16;99402.88;;;20.54;80.03
77192;BME280;66172;48.526;8.078;2023-06-22T03:12:42;99395.66;;;20.67;79.46
77192;BME280;66172;48.526;8.078;2023-06-22T03:15:10;99394.81;;;20.70;79.05
77192;BME280;66172;48.526;8.078;2023-06-22T03:17:38;99396.09;;;20.62;79.18
77192;BME280;66172;48.526;8.078;2023-06-22T03:20:05;99393.41;;;20.51;79.89
77192;BME280;66172;48.526;8.078;2023-06-22T03:22:35;99395.75;;;20.53;80.11
77192;BME280;66172;48.526;8.078;2023-06-22T03:25:02;99391.00;;;20.57;79.68
77192;BME280;66172;48.526;8.078;2023-06-22T03:27:27;99393.00;;;20.53;79.66
77192;BME280;66172;48.526;8.078;2023-06-22T03:29:53;99397.69;;;20.59;79.22
77192;BME280;66172;48.526;8.078;2023-06-22T03:32:19;99403.19;;;20.63;78.98
77192;BME280;66172;48.526;8.078;2023-06-22T03:34:45;99389.03;;;20.54;79.66
77192;BME280;66172;48.526;8.078;2023-06-22T03:37:14;99383.19;;;20.44;79.94
77192;BME280;66172;48.526;8.078;2023-06-22T03:39:41;99390.75;;;20.37;80.16
77192;BME280;66172;48.526;8.078;2023-06-22T03:42:07;99383.28;;;20.30;80.48
77192;BME280;66172;48.526;8.078;2023-06-22T03:44:35;99380.16;;;20.21;81.43
77192;BME280;66172;48.526;8.078;2023-06-22T03:47:05;99368.75;;;20.19;81.55
77192;BME280;66172;48.526;8.078;2023-06-22T03:49:33;99369.81;;;20.39;80.48
77192;BME280;66172;48.526;8.078;2023-06-22T03:52:00;99372.91;;;20.49;79.82
77192;BME280;66172;48.526;8.078;2023-06-22T03:54:30;99380.69;;;20.61;79.04
77192;BME280;66172;48.526;8.078;2023-06-22T03:56:57;99380.97;;;20.73;78.40
77192;BME280;66172;48.526;8.078;2023-06-22T03:59:23;99379.41;;;20.72;78.29
77192;BME280;66172;48.526;8.078;2023-06-22T04:01:49;99373.44;;;20.77;78.10
77192;BME280;66172;48.526;8.078;2023-06-22T04:04:17;99372.22;;;20.82;78.45
77192;BME280;66172;48.526;8.078;2023-06-22T04:06:43;99373.69;;;20.93;78.08
77192;BME280;66172;48.526;8.078;2023-06-22T04:09:09;99370.53;;;20.95;77.44
77192;BME280;66172;48.526;8.078;2023-06-22T04:11:35;99365.47;;;20.86;77.66
77192;BME280;66172;48.526;8.078;2023-06-22T04:14:01;99363.38;;;20.98;77.13
77192;BME280;66172;48.526;8.078;2023-06-22T04:16:27;99361.38;;;21.02;76.97
77192;BME280;66172;48.526;8.078;2023-06-22T04:18:53;99365.28;;;21.04;76.36
77192;BME280;66172;48.526;8.078;2023-06-22T04:21:19;99364.06;;;21.12;76.32
77192;BME280;66172;48.526;8.078;2023-06-22T04:23:47;99346.94;;;21.24;76.27
77192;BME280;66172;48.526;8.078;2023-06-22T04:26:13;99341.81;;;21.23;76.15
77192;BME280;66172;48.526;8.078;2023-06-22T04:28:40;99342.13;;;21.32;75.16
77192;BME280;66172;48.526;8.078;2023-06-22T04:31:06;99346.75;;;21.42;74.91
77192;BME280;66172;48.526;8.078;2023-06-22T04:33:32;99343.38;;;21.58;74.68
77192;BME280;66172;48.526;8.078;2023-06-22T04:35:58;99340.84;;;21.70;74.24
77192;BME280;66172;48.526;8.078;2023-06-22T04:38:26;99338.69;;;21.81;73.54
77192;BME280;66172;48.526;8.078;2023-06-22T04:40:53;99336.63;;;21.89;73.64
77192;BME280;66172;48.526;8.078;2023-06-22T04:43:19;99346.13;;;21.92;74.12
77192;BME280;66172;48.526;8.078;2023-06-22T04:45:45;99341.69;;;21.98;73.88
77192;BME280;66172;48.526;8.078;2023-06-22T04:48:11;99342.78;;;22.04;74.40
77192;BME280;66172;48.526;8.078;2023-06-22T04:50:42;99335.63;;;22.06;74.58
77192;BME280;66172;48.526;8.078;2023-06-22T04:53:08;99339.97;;;22.07;74.55
77192;BME280;66172;48.526;8.078;2023-06-22T04:55:35;99346.22;;;22.11;74.31
77192;BME280;66172;48.526;8.078;2023-06-22T04:58:03;99343.72;;;22.20;74.21
77192;BME280;66172;48.526;8.078;2023-06-22T05:00:30;99348.09;;;22.45;72.84
77192;BME280;66172;48.526;8.078;2023-06-22T05:02:57;99352.44;;;22.72;72.01
77192;BME280;66172;48.526;8.078;2023-06-22T05:05:24;99345.59;;;23.00;70.89
77192;BME280;66172;48.526;8.078;2023-06-22T05:07:51;99342.06;;;23.59;69.08
77192;BME280;66172;48.526;8.078;2023-06-22T05:10:26;99346.25;;;24.22;66.41
77192;BME280;66172;48.526;8.078;2023-06-22T05:12:52;99342.84;;;24.79;64.59
77192;BME280;66172;48.526;8.078;2023-06-22T05:15:18;99344.91;;;25.08;63.29
77192;BME280;66172;48.526;8.078;2023-06-22T05:17:48;99340.47;;;25.68;60.76
77192;BME280;66172;48.526;8.078;2023-06-22T05:20:14;99345.66;;;26.20;60.00
77192;BME280;66172;48.526;8.078;2023-06-22T05:22:43;99340.59;;;26.65;58.73
77192;BME280;66172;48.526;8.078;2023-06-22T05:25:10;99341.44;;;27.22;56.65
77192;BME280;66172;48.526;8.078;2023-06-22T05:27:37;99359.63;;;27.92;54.61
77192;BME280;66172;48.526;8.078;2023-06-22T05:30:07;99349.47;;;28.47;53.09
77192;BME280;66172;48.526;8.078;2023-06-22T05:32:34;99345.69;;;28.81;51.55
77192;BME280;66172;48.526;8.078;2023-06-22T05:35:00;99348.50;;;29.08;51.26
77192;BME280;66172;48.526;8.078;2023-06-22T05:37:26;99349.31;;;29.27;50.02
77192;BME280;66172;48.526;8.078;2023-06-22T05:39:52;99349.72;;;29.70;49.42
77192;BME280;66172;48.526;8.078;2023-06-22T05:42:18;99350.31;;;29.93;48.10
77192;BME280;66172;48.526;8.078;2023-06-22T05:44:44;99349.53;;;30.43;47.14
77192;BME280;66172;48.526;8.078;2023-06-22T05:47:10;99344.09;;;30.87;46.06
77192;BME280;66172;48.526;8.078;2023-06-22T05:49:36;99351.44;;;31.47;45.08
77192;BME280;66172;48.526;8.078;2023-06-22T05:52:02;99350.09;;;31.57;44.88
77192;BME280;66172;48.526;8.078;2023-06-22T05:54:28;99343.97;;;31.44;44.57
77192;BME280;66172;48.526;8.078;2023-06-22T05:56:54;99354.50;;;31.87;43.67
77192;BME280;66172;48.526;8.078;2023-06-22T05:59:20;99356.22;;;31.85;43.55
77192;BME280;66172;48.526;8.078;2023-06-22T06:01:46;99358.53;;;32.30;43.02
77192;BME280;66172;48.526;8.078;2023-06-22T06:04:18;99351.69;;;32.86;41.25
77192;BME280;66172;48.526;8.078;2023-06-22T06:06:44;99344.00;;;33.27;40.74
77192;BME280;66172;48.526;8.078;2023-06-22T06:09:15;99346.84;;;33.53;39.70
77192;BME280;66172;48.526;8.078;2023-06-22T06:11:41;99342.94;;;33.50;39.28
77192;BME280;66172;48.526;8.078;2023-06-22T06:14:08;99335.22;;;33.71;39.28
77192;BME280;66172;48.526;8.078;2023-06-22T06:16:34;99340.66;;;34.06;39.16
77192;BME280;66172;48.526;8.078;2023-06-22T06:18:59;99352.59;;;34.21;38.64
77192;BME280;66172;48.526;8.078;2023-06-22T06:21:25;99350.91;;;34.35;38.48
77192;BME280;66172;48.526;8.078;2023-06-22T06:23:51;99347.84;;;34.75;37.54
77192;BME280;66172;48.526;8.078;2023-06-22T06:26:18;99354.69;;;34.63;37.25
77192;BME280;66172;48.526;8.078;2023-06-22T06:28:54;99343.44;;;35.28;36.46
77192;BME280;66172;48.526;8.078;2023-06-22T06:31:20;99333.16;;;35.25;36.58
77192;BME280;66172;48.526;8.078;2023-06-22T06:33:46;99333.19;;;35.41;36.20
77192;BME280;66172;48.526;8.078;2023-06-22T06:36:12;99320.66;;;35.92;35.58
77192;BME280;66172;48.526;8.078;2023-06-22T06:38:38;99328.28;;;36.70;34.01
77192;BME280;66172;48.526;8.078;2023-06-22T06:41:04;99339.66;;;36.59;34.22
77192;BME280;66172;48.526;8.078;2023-06-22T06:43:30;99348.06;;;36.86;33.80
77192;BME280;66172;48.526;8.078;2023-06-22T06:45:56;99365.03;;;36.97;33.54
77192;BME280;66172;48.526;8.078;2023-06-22T06:48:22;99368.25;;;35.61;35.29
77192;BME280;66172;48.526;8.078;2023-06-22T06:50:47;99372.22;;;34.04;37.95
77192;BME280;66172;48.526;8.078;2023-06-22T06:53:13;99377.66;;;33.36;39.52
77192;BME280;66172;48.526;8.078;2023-06-22T06:55:39;99369.38;;;34.30;38.71
77192;BME280;66172;48.526;8.078;2023-06-22T06:58:05;99371.06;;;34.96;37.19
77192;BME280;66172;48.526;8.078;2023-06-22T07:00:33;99367.66;;;35.51;36.53
77192;BME280;66172;48.526;8.078;2023-06-22T07:02:59;99362.81;;;34.87;37.66
77192;BME280;66172;48.526;8.078;2023-06-22T07:05:25;99350.41;;;33.28;40.50
77192;BME280;66172;48.526;8.078;2023-06-22T07:07:51;99358.75;;;33.88;39.86
77192;BME280;66172;48.526;8.078;2023-06-22T07:10:16;99360.03;;;34.19;39.13
77192;BME280;66172;48.526;8.078;2023-06-22T07:12:42;99358.75;;;33.88;38.91
77192;BME280;66172;48.526;8.078;2023-06-22T07:15:09;99370.63;;;32.86;41.12
77192;BME280;66172;48.526;8.078;2023-06-22T07:17:36;99381.19;;;31.77;43.26
77192;BME280;66172;48.526;8.078;2023-06-22T07:20:03;99383.94;;;31.09;45.43
77192;BME280;66172;48.526;8.078;2023-06-22T07:22:39;99386.56;;;30.56;46.97
77192;BME280;66172;48.526;8.078;2023-06-22T07:25:05;99386.31;;;29.94;49.03
77192;BME280;66172;48.526;8.078;2023-06-22T07:27:39;99389.28;;;29.63;49.64
77192;BME280;66172;48.526;8.078;2023-06-22T07:30:09;99385.69;;;29.17;50.69
77192;BME280;66172;48.526;8.078;2023-06-22T07:32:35;99396.72;;;28.85;51.71
77192;BME280;66172;48.526;8.078;2023-06-22T07:35:01;99408.28;;;28.65;53.01
77192;BME280;66172;48.526;8.078;2023-06-22T07:37:28;99430.31;;;28.14;54.39
77192;BME280;66172;48.526;8.078;2023-06-22T07:39:57;99444.56;;;28.38;54.29
77192;BME280;66172;48.526;8.078;2023-06-22T07:42:26;99458.72;;;28.43;53.38
77192;BME280;66172;48.526;8.078;2023-06-22T07:44:53;99471.22;;;28.51;53.66
77192;BME280;66172;48.526;8.078;2023-06-22T07:47:19;99472.19;;;27.83;55.25
77192;BME280;66172;48.526;8.078;2023-06-22T07:49:46;99459.88;;;26.99;58.11
77192;BME280;66172;48.526;8.078;2023-06-22T07:52:12;99428.53;;;26.70;58.95
77192;BME280;66172;48.526;8.078;2023-06-22T07:54:38;99368.28;;;26.47;60.86
77192;BME280;66172;48.526;8.078;2023-06-22T07:57:05;99312.16;;;26.58;61.40
77192;BME280;66172;48.526;8.078;2023-06-22T07:59:31;99325.50;;;26.75;61.66
77192;BME280;66172;48.526;8.078;2023-06-22T08:01:57;99339.25;;;27.39;58.48
77192;BME280;66172;48.526;8.078;2023-06-22T08:04:23;99340.81;;;28.63;55.53
77192;BME280;66172;48.526;8.078;2023-06-22T08:06:49;99365.63;;;29.01;53.99
77192;BME280;66172;48.526;8.078;2023-06-22T08:09:15;99350.09;;;29.36;53.59
77192;BME280;66172;48.526;8.078;2023-06-22T08:11:41;99360.50;;;29.17;53.59
77192;BME280;66172;48.526;8.078;2023-06-22T08:14:07;99377.28;;;29.63;51.61
77192;BME280;66172;48.526;8.078;2023-06-22T08:16:33;99385.63;;;30.08;50.75
77192;BME280;66172;48.526;8.078;2023-06-22T08:18:58;99393.78;;;30.48;49.68
77192;BME280;66172;48.526;8.078;2023-06-22T08:21:24;99394.84;;;31.46;46.74
77192;BME280;66172;48.526;8.078;2023-06-22T08:23:50;99403.59;;;32.15;46.14
77192;BME280;66172;48.526;8.078;2023-06-22T08:26:16;99398.81;;;33.06;43.76
77192;BME280;66172;48.526;8.078;2023-06-22T08:28:42;99400.19;;;33.10;43.77
77192;BME280;66172;48.526;8.078;2023-06-22T08:31:08;99402.31;;;32.81;43.54
77192;BME280;66172;48.526;8.078;2023-06-22T08:33:34;99402.34;;;32.51;43.86
77192;BME280;66172;48.526;8.078;2023-06-22T08:36:00;99409.63;;;33.28;42.82
77192;BME280;66172;48.526;8.078;2023-06-22T08:38:26;99385.47;;;33.67;41.96
77192;BME280;66172;48.526;8.078;2023-06-22T08:40:52;99390.75;;;34.11;40.99
77192;BME280;66172;48.526;8.078;2023-06-22T08:43:18;99389.44;;;34.75;39.59
77192;BME280;66172;48.526;8.078;2023-06-22T08:45:44;99374.34;;;35.48;38.09
77192;BME280;66172;48.526;8.078;2023-06-22T08:48:10;99364.13;;;35.84;37.29
77192;BME280;66172;48.526;8.078;2023-06-22T08:50:36;99366.63;;;35.54;37.50
77192;BME280;66172;48.526;8.078;2023-06-22T08:53:02;99383.44;;;35.09;37.93
77192;BME280;66172;48.526;8.078;2023-06-22T08:55:28;99380.84;;;35.00;38.37
77192;BME280;66172;48.526;8.078;2023-06-22T08:57:53;99375.31;;;34.75;39.02
77192;BME280;66172;48.526;8.078;2023-06-22T09:00:20;99364.50;;;34.68;39.02
77192;BME280;66172;48.526;8.078;2023-06-22T09:02:47;99338.81;;;34.03;39.90
77192;BME280;66172;48.526;8.078;2023-06-22T09:05:13;99333.16;;;33.97;40.65
77192;BME280;66172;48.526;8.078;2023-06-22T09:07:39;99322.34;;;33.39;41.66
77192;BME280;66172;48.526;8.078;2023-06-22T09:10:06;99319.38;;;32.47;43.04
77192;BME280;66172;48.526;8.078;2023-06-22T09:12:32;99307.84;;;31.66;45.38
77192;BME280;66172;48.526;8.078;2023-06-22T09:14:59;99298.72;;;31.71;44.97
77192;BME280;66172;48.526;8.078;2023-06-22T09:17:26;99300.19;;;31.66;46.13
77192;BME280;66172;48.526;8.078;2023-06-22T09:19:52;99290.63;;;31.20;47.01
77192;BME280;66172;48.526;8.078;2023-06-22T09:22:18;99284.22;;;31.05;46.76
77192;BME280;66172;48.526;8.078;2023-06-22T09:24:44;99284.72;;;31.03;47.04
77192;BME280;66172;48.526;8.078;2023-06-22T09:27:10;99274.84;;;30.84;47.13
77192;BME280;66172;48.526;8.078;2023-06-22T09:29:35;99279.81;;;30.42;48.77
77192;BME280;66172;48.526;8.078;2023-06-22T09:32:02;99291.84;;;30.33;48.85
77192;BME280;66172;48.526;8.078;2023-06-22T09:34:27;99300.50;;;30.20;48.64
77192;BME280;66172;48.526;8.078;2023-06-22T09:36:53;99298.16;;;30.19;49.08
77192;BME280;66172;48.526;8.078;2023-06-22T09:39:20;99315.88;;;30.58;48.38
77192;BME280;66172;48.526;8.078;2023-06-22T09:41:46;99317.69;;;30.70;47.76
77192;BME280;66172;48.526;8.078;2023-06-22T09:44:12;99302.91;;;31.08;47.50
77192;BME280;66172;48.526;8.078;2023-06-22T09:46:38;99300.88;;;31.08;47.53
77192;BME280;66172;48.526;8.078;2023-06-22T09:49:04;99282.06;;;30.76;48.10
77192;BME280;66172;48.526;8.078;2023-06-22T09:51:30;99290.91;;;30.84;48.17
77192;BME280;66172;48.526;8.078;2023-06-22T09:53:55;99281.88;;;30.32;48.80
77192;BME280;66172;48.526;8.078;2023-06-22T09:56:21;99270.78;;;30.61;47.59
77192;BME280;66172;48.526;8.078;2023-06-22T09:58:48;99269.25;;;30.60;47.77
77192;BME280;66172;48.526;8.078;2023-06-22T10:01:15;99264.19;;;30.50;48.15
77192;BME280;66172;48.526;8.078;2023-06-22T10:03:41;99264.00;;;30.92;47.55
77192;BME280;66172;48.526;8.078;2023-06-22T10:06:07;99260.78;;;31.81;46.00
77192;BME280;66172;48.526;8.078;2023-06-22T10:08:34;99253.53;;;32.44;44.77
77192;BME280;66172;48.526;8.078;2023-06-22T10:11:00;99253.34;;;32.88;43.99
77192;BME280;66172;48.526;8.078;2023-06-22T10:13:26;99246.53;;;32.75;44.42
77192;BME280;66172;48.526;8.078;2023-06-22T10:15:52;99257.84;;;32.80;43.57
77192;BME280;66172;48.526;8.078;2023-06-22T10:18:19;99260.09;;;32.96;43.38
77192;BME280;66172;48.526;8.078;2023-06-22T10:20:47;99262.69;;;32.80;43.31
77192;BME280;66172;48.526;8.078;2023-06-22T10:23:13;99265.03;;;32.81;43.72
77192;BME280;66172;48.526;8.078;2023-06-22T10:25:39;99264.19;;;32.75;43.44
77192;BME280;66172;48.526;8.078;2023-06-22T10:28:05;99267.16;;;32.66;43.94
77192;BME280;66172;48.526;8.078;2023-06-22T10:30:31;99264.16;;;32.55;44.30
77192;BME280;66172;48.526;8.078;2023-06-22T10:32:56;99265.16;;;32.52;45.05
77192;BME280;66172;48.526;8.078;2023-06-22T10:35:22;99256.31;;;32.79;43.59
77192;BME280;66172;48.526;8.078;2023-06-22T10:37:48;99252.84;;;32.90;43.32
77192;BME280;66172;48.526;8.078;2023-06-22T10:40:15;99259.91;;;33.26;43.41
77192;BME280;66172;48.526;8.078;2023-06-22T10:42:41;99259.88;;;33.77;42.76
77192;BME280;66172;48.526;8.078;2023-06-22T10:45:08;99261.00;;;33.91;41.34
77192;BME280;66172;48.526;8.078;2023-06-22T10:47:34;99259.66;;;33.81;42.05
77192;BME280;66172;48.526;8.078;2023-06-22T10:50:01;99252.06;;;33.98;42.01
77192;BME280;66172;48.526;8.078;2023-06-22T10:52:27;99254.56;;;33.90;41.63
77192;BME280;66172;48.526;8.078;2023-06-22T10:54:53;99246.13;;;33.90;42.28
77192;BME280;66172;48.526;8.078;2023-06-22T10:57:19;99249.63;;;33.80;42.59
77192;BME280;66172;48.526;8.078;2023-06-22T10:59:45;99237.31;;;33.77;43.11
77192;BME280;66172;48.526;8.078;2023-06-22T11:02:10;99226.28;;;33.53;43.18
77192;BME280;66172;48.526;8.078;2023-06-22T11:04:36;99225.84;;;33.29;43.79
77192;BME280;66172;48.526;8.078;2023-06-22T11:07:02;99226.84;;;32.80;44.73
77192;BME280;66172;48.526;8.078;2023-06-22T11:09:28;99230.09;;;32.93;44.03
77192;BME280;66172;48.526;8.078;2023-06-22T11:11:55;99230.31;;;32.70;45.78
77192;BME280;66172;48.526;8.078;2023-06-22T11:14:21;99249.88;;;32.99;44.92
77192;BME280;66172;48.526;8.078;2023-06-22T11:16:48;99261.44;;;32.81;45.18
77192;BME280;66172;48.526;8.078;2023-06-22T11:19:13;99265.47;;;32.74;45.51
77192;BME280;66172;48.526;8.078;2023-06-22T11:21:39;99277.25;;;32.38;46.34
77192;BME280;66172;48.526;8.078;2023-06-22T11:24:05;99285.78;;;32.43;46.03
77192;BME280;66172;48.526;8.078;2023-06-22T11:26:31;99297.03;;;32.43;46.42
77192;BME280;66172;48.526;8.078;2023-06-22T11:28:58;99303.47;;;32.44;46.58
77192;BME280;66172;48.526;8.078;2023-06-22T11:31:24;99314.50;;;32.47;46.41
77192;BME280;66172;48.526;8.078;2023-06-22T11:33:50;99317.03;;;32.45;45.21
77192;BME280;66172;48.526;8.078;2023-06-22T11:36:16;99332.34;;;32.24;45.82
77192;BME280;66172;48.526;8.078;2023-06-22T11:38:42;99326.91;;;32.21;46.18
77192;BME280;66172;48.526;8.078;2023-06-22T11:41:09;99325.72;;;32.27;46.51
77192;BME280;66172;48.526;8.078;2023-06-22T11:43:36;99321.44;;;32.32;46.33
77192;BME280;66172;48.526;8.078;2023-06-22T11:46:03;99324.03;;;32.15;46.70
77192;BME280;66172;48.526;8.078;2023-06-22T11:48:29;99316.63;;;32.03;47.08
77192;BME280;66172;48.526;8.078;2023-06-22T11:50:55;99304.91;;;31.90;47.70
77192;BME280;66172;48.526;8.078;2023-06-22T11:53:23;99294.72;;;31.78;47.70
77192;BME280;66172;48.526;8.078;2023-06-22T11:55:49;99304.53;;;31.53;48.56
77192;BME280;66172;48.526;8.078;2023-06-22T11:58:16;99301.59;;;31.33;48.95
77192;BME280;66172;48.526;8.078;2023-06-22T12:00:42;99298.06;;;31.08;48.82
77192;BME280;66172;48.526;8.078;2023-06-22T12:03:08;99305.97;;;30.95;48.96
77192;BME280;66172;48.526;8.078;2023-06-22T12:05:35;99321.03;;;30.83;49.83
77192;BME280;66172;48.526;8.078;2023-06-22T12:08:00;99328.97;;;30.85;49.71
77192;BME280;66172;48.526;8.078;2023-06-22T12:10:26;99332.25;;;30.83;49.78
77192;BME280;66172;48.526;8.078;2023-06-22T12:12:55;99314.47;;;31.10;50.20
77192;BME280;66172;48.526;8.078;2023-06-22T12:15:23;99313.34;;;31.31;49.29
77192;BME280;66172;48.526;8.078;2023-06-22T12:17:49;99295.50;;;31.49;49.18
77192;BME280;66172;48.526;8.078;2023-06-22T12:20:15;99287.53;;;31.47;48.45
77192;BME280;66172;48.526;8.078;2023-06-22T12:22:41;99289.13;;;31.63;48.37
77192;BME280;66172;48.526;8.078;2023-06-22T12:25:08;99283.00;;;31.64;47.91
77192;BME280;66172;48.526;8.078;2023-06-22T12:27:35;99277.06;;;31.92;47.11
77192;BME280;66172;48.526;8.078;2023-06-22T12:30:01;99281.94;;;31.62;47.40
77192;BME280;66172;48.526;8.078;2023-06-22T12:32:27;99280.00;;;31.68;47.46
77192;BME280;66172;48.526;8.078;2023-06-22T12:34:53;99282.47;;;31.95;46.57
77192;BME280;66172;48.526;8.078;2023-06-22T12:37:19;99284.09;;;32.16;46.61
77192;BME280;66172;48.526;8.078;2023-06-22T12:39:45;99278.38;;;32.26;47.07
77192;BME280;66172;48.526;8.078;2023-06-22T12:42:11;99272.06;;;31.66;46.92
77192;BME280;66172;48.526;8.078;2023-06-22T12:44:40;99286.53;;;31.59;47.08
77192;BME280;66172;48.526;8.078;2023-06-22T12:47:07;99298.50;;;31.89;46.66
77192;BME280;66172;48.526;8.078;2023-06-22T12:49:37;99304.91;;;32.04;46.42
77192;BME280;66172;48.526;8.078;2023-06-22T12:52:03;99295.88;;;32.15;46.76
77192;BME280;66172;48.526;8.078;2023-06-22T12:54:29;99297.31;;;32.45;46.46
77192;BME280;66172;48.526;8.078;2023-06-22T12:56:55;99300.41;;;32.82;45.63
77192;BME280;66172;48.526;8.078;2023-06-22T12:59:21;99300.72;;;33.10;45.08
77192;BME280;66172;48.526;8.078;2023-06-22T13:01:47;99295.00;;;33.25;45.11